createdAt,value
2023-03-27T00:02:05.055Z,1.93
2023-03-27T00:04:32.793Z,1.67
2023-03-27T00:06:59.577Z,4.17
2023-03-27T00:09:28.419Z,2.30
2023-03-27T00:11:56.343Z,1.90
2023-03-27T00:14:23.859Z,2.33
2023-03-27T00:16:50.936Z,2.17
2023-03-27T00:19:18.770Z,1.70
2023-03-27T00:21:45.385Z,1.97
2023-03-27T00:24:12.216Z,3.00
2023-03-27T00:26:40.401Z,2.07
2023-03-27T00:29:07.660Z,2.40
2023-03-27T00:31:34.342Z,2.53
2023-03-27T00:34:01.737Z,2.10
2023-03-27T00:36:28.410Z,2.37
2023-03-27T00:38:55.336Z,2.10
2023-03-27T00:41:23.537Z,2.30
2023-03-27T00:43:53.277Z,2.63
2023-03-27T00:46:41.397Z,2.00
2023-03-27T00:49:13.224Z,2.47
2023-03-27T00:51:42.030Z,1.83
2023-03-27T00:54:09.722Z,1.97
2023-03-27T00:56:38.477Z,1.80
2023-03-27T00:59:11.159Z,2.53
2023-03-27T01:01:39.450Z,4.40
2023-03-27T01:04:07.298Z,2.33
2023-03-27T01:06:35.346Z,2.30
2023-03-27T01:09:02.487Z,2.67
2023-03-27T01:11:39.074Z,2.80
2023-03-27T01:14:15.749Z,2.37
2023-03-27T01:16:54.370Z,3.10
2023-03-27T01:19:53.289Z,2.33
2023-03-27T01:22:58.273Z,3.00
2023-03-27T01:25:46.843Z,2.30
2023-03-27T01:28:38.439Z,3.37
2023-03-27T01:31:29.289Z,2.20
2023-03-27T01:34:38.197Z,3.40
2023-03-27T01:37:31.891Z,1.93
2023-03-27T01:40:12.685Z,2.00
2023-03-27T01:42:47.982Z,2.37
2023-03-27T01:45:38.256Z,2.40
2023-03-27T01:48:12.786Z,3.13
2023-03-27T01:50:45.252Z,2.85
2023-03-27T01:53:20.417Z,2.60
2023-03-27T01:55:58.107Z,4.07
2023-03-27T01:58:35.953Z,2.53
2023-03-27T02:01:04.161Z,2.80
2023-03-27T02:03:46.813Z,3.20
2023-03-27T02:06:28.286Z,2.67
2023-03-27T02:09:21.937Z,3.30
2023-03-27T02:12:09.356Z,2.08
2023-03-27T02:15:23.407Z,2.20
2023-03-27T02:17:56.806Z,2.30
2023-03-27T02:20:24.045Z,3.10
2023-03-27T02:22:51.365Z,2.93
2023-03-27T02:25:27.788Z,2.20
2023-03-27T02:27:59.860Z,2.50
2023-03-27T02:30:36.166Z,2.40
2023-03-27T02:33:14.606Z,2.47
2023-03-27T02:35:56.952Z,2.20
2023-03-27T02:38:29.069Z,2.22
2023-03-27T02:41:08.728Z,2.45
2023-03-27T02:44:25.341Z,2.63
2023-03-27T02:47:01.604Z,2.15
2023-03-27T02:49:34.410Z,3.10
2023-03-27T02:52:07.644Z,2.60
2023-03-27T02:54:44.183Z,2.83
2023-03-27T02:57:16.832Z,2.40
2023-03-27T03:00:23.935Z,1.83
2023-03-27T03:03:10.881Z,2.50
2023-03-27T03:05:37.988Z,2.33
2023-03-27T03:08:05.584Z,2.63
2023-03-27T03:10:33.240Z,2.75
2023-03-27T03:12:59.951Z,1.95
2023-03-27T03:15:27.052Z,2.97
2023-03-27T03:17:53.980Z,2.05
2023-03-27T03:20:21.986Z,2.85
2023-03-27T03:22:49.238Z,2.40
2023-03-27T03:25:17.769Z,2.67
2023-03-27T03:27:44.459Z,2.23
2023-03-27T03:30:17.707Z,2.88
2023-03-27T03:32:56.858Z,2.97
2023-03-27T03:35:24.951Z,2.70
2023-03-27T03:37:52.765Z,2.00
2023-03-27T03:40:20.394Z,3.65
2023-03-27T03:42:51.401Z,2.35
2023-03-27T03:45:21.758Z,1.60
2023-03-27T03:47:48.504Z,2.13
2023-03-27T03:50:16.402Z,2.75
2023-03-27T03:52:43.155Z,2.65
2023-03-27T03:55:11.840Z,2.38
2023-03-27T03:57:38.734Z,2.60
2023-03-27T04:00:13.553Z,2.90
2023-03-27T04:02:53.626Z,1.92
2023-03-27T04:05:21.949Z,4.57
2023-03-27T04:07:52.210Z,2.50
2023-03-27T04:10:27.563Z,3.83
2023-03-27T04:12:54.483Z,2.65
2023-03-27T04:15:33.888Z,3.45
2023-03-27T04:18:12.046Z,2.08
2023-03-27T04:20:39.533Z,3.20
2023-03-27T04:23:09.723Z,2.65
2023-03-27T04:25:38.353Z,2.33
2023-03-27T04:28:05.689Z,2.78
2023-03-27T04:30:36.947Z,2.47
2023-03-27T04:33:22.925Z,3.53
2023-03-27T04:36:19.512Z,3.78
2023-03-27T04:39:10.384Z,2.72
2023-03-27T04:41:39.153Z,3.80
2023-03-27T04:44:07.172Z,3.33
2023-03-27T04:46:34.971Z,3.60
2023-03-27T04:49:07.401Z,3.65
2023-03-27T04:51:48.747Z,4.38
2023-03-27T04:54:15.351Z,4.05
2023-03-27T04:56:45.614Z,4.57
2023-03-27T04:59:12.374Z,5.50
2023-03-27T05:01:40.043Z,4.20
2023-03-27T05:04:32.888Z,4.50
2023-03-27T05:07:13.241Z,4.47
2023-03-27T05:09:40.988Z,4.40
2023-03-27T05:12:08.629Z,3.92
2023-03-27T05:14:41.703Z,5.20
2023-03-27T05:17:25.560Z,5.60
2023-03-27T05:19:52.258Z,5.45
2023-03-27T05:22:18.981Z,4.85
2023-03-27T05:24:51.869Z,5.00
2023-03-27T05:27:19.225Z,6.97
2023-03-27T05:29:49.062Z,7.45
2023-03-27T05:32:17.023Z,7.20
2023-03-27T05:34:50.713Z,5.07
2023-03-27T05:37:18.127Z,5.03
2023-03-27T05:40:10.060Z,5.50
2023-03-27T05:42:42.672Z,5.22
2023-03-27T05:45:10.115Z,5.30
2023-03-27T05:47:52.045Z,4.30
2023-03-27T05:50:21.419Z,4.03
2023-03-27T05:52:57.750Z,4.75
2023-03-27T05:55:31.963Z,5.10
2023-03-27T05:57:58.846Z,5.28
2023-03-27T06:00:27.199Z,5.18
2023-03-27T06:02:56.946Z,5.45
2023-03-27T06:05:32.437Z,4.93
2023-03-27T06:08:02.017Z,5.65
2023-03-27T06:10:30.249Z,5.43
2023-03-27T06:13:18.506Z,4.53
2023-03-27T06:15:56.863Z,4.93
2023-03-27T06:18:42.534Z,4.93
2023-03-27T06:21:11.497Z,4.00
2023-03-27T06:23:38.180Z,5.20
2023-03-27T06:26:10.366Z,5.33
2023-03-27T06:28:39.106Z,4.03
2023-03-27T06:31:06.467Z,7.00
2023-03-27T06:33:39.752Z,4.53
2023-03-27T06:36:10.037Z,4.90
2023-03-27T06:38:40.479Z,4.10
2023-03-27T06:41:07.366Z,4.90
2023-03-27T06:43:52.326Z,3.90
2023-03-27T06:46:47.483Z,4.73
2023-03-27T06:49:19.529Z,3.90
2023-03-27T06:51:46.410Z,3.77
2023-03-27T06:54:14.465Z,5.20
2023-03-27T06:56:45.750Z,3.77
2023-03-27T06:59:15.415Z,5.60
2023-03-27T07:01:43.804Z,4.43
2023-03-27T07:04:22.594Z,4.57
2023-03-27T07:07:02.869Z,3.77
2023-03-27T07:09:33.508Z,5.03
2023-03-27T07:12:04.377Z,4.50
2023-03-27T07:14:31.282Z,4.30
2023-03-27T07:16:58.163Z,4.37
2023-03-27T07:19:29.057Z,3.50
2023-03-27T07:22:03.582Z,4.80
2023-03-27T07:24:32.293Z,5.20
2023-03-27T07:26:58.969Z,4.27
2023-03-27T07:29:33.457Z,4.10
2023-03-27T07:32:04.366Z,5.03
2023-03-27T07:34:38.407Z,4.50
2023-03-27T07:37:34.410Z,3.93
2023-03-27T07:40:36.984Z,4.73
2023-03-27T07:43:41.062Z,4.03
2023-03-27T07:46:08.846Z,4.73
2023-03-27T07:48:35.807Z,4.03
2023-03-27T07:51:13.246Z,4.10
2023-03-27T07:53:41.401Z,5.17
2023-03-27T07:56:14.818Z,3.57
2023-03-27T07:58:45.001Z,2.83
2023-03-27T08:01:17.213Z,3.40
2023-03-27T08:03:47.197Z,3.40
2023-03-27T08:06:15.537Z,3.63
2023-03-27T08:08:43.114Z,2.93
2023-03-27T08:11:23.051Z,2.97
2023-03-27T08:13:56.621Z,2.60
2023-03-27T08:16:27.564Z,2.20
2023-03-27T08:18:57.447Z,2.00
2023-03-27T08:21:26.101Z,2.37
2023-03-27T08:23:52.807Z,1.80
2023-03-27T08:26:20.770Z,2.43
2023-03-27T08:28:54.034Z,2.00
2023-03-27T08:31:23.907Z,2.43
2023-03-27T08:33:51.415Z,2.33
2023-03-27T08:36:23.751Z,2.80
2023-03-27T08:38:54.956Z,1.40
2023-03-27T08:41:38.573Z,2.33
2023-03-27T08:44:30.699Z,2.33
2023-03-27T08:47:02.868Z,2.13
2023-03-27T08:49:39.788Z,2.23
2023-03-27T08:52:27.284Z,2.40
2023-03-27T08:55:00.935Z,2.87
2023-03-27T08:57:35.418Z,2.33
2023-03-27T09:00:22.495Z,1.70
2023-03-27T09:02:58.725Z,2.10
2023-03-27T09:05:55.443Z,1.63
2023-03-27T09:08:44.530Z,1.73
2023-03-27T09:11:21.809Z,1.83
2023-03-27T09:13:55.047Z,2.20
2023-03-27T09:16:33.082Z,1.63
2023-03-27T09:19:34.009Z,2.00
2023-03-27T09:22:07.812Z,1.80
2023-03-27T09:25:08.148Z,2.10
2023-03-27T09:28:01.496Z,2.80
2023-03-27T09:30:38.614Z,2.10
2023-03-27T09:33:12.161Z,2.60
2023-03-27T09:35:42.058Z,2.40
2023-03-27T09:38:37.310Z,3.20
2023-03-27T09:41:13.333Z,2.53
2023-03-27T09:44:08.994Z,2.50
2023-03-27T09:46:45.557Z,2.00
2023-03-27T09:49:18.479Z,2.23
2023-03-27T09:51:53.259Z,2.00
2023-03-27T09:54:54.456Z,1.63
2023-03-27T09:57:37.244Z,1.73
2023-03-27T10:00:24.879Z,1.90
2023-03-27T10:03:08.071Z,1.50
2023-03-27T10:05:38.766Z,1.40
2023-03-27T10:08:27.104Z,2.10
2023-03-27T10:11:07.902Z,1.40
2023-03-27T10:13:50.752Z,1.57
2023-03-27T10:16:22.536Z,1.83
2023-03-27T10:19:02.136Z,2.60
2023-03-27T10:21:38.416Z,1.80
2023-03-27T10:24:46.183Z,2.40
2023-03-27T10:27:27.279Z,1.90
2023-03-27T10:30:29.089Z,2.60
2023-03-27T10:33:07.698Z,2.23
2023-03-27T10:35:52.093Z,2.67
2023-03-27T10:38:26.333Z,2.90
2023-03-27T10:41:17.453Z,3.10
2023-03-27T10:43:57.460Z,4.13
2023-03-27T10:46:27.750Z,3.60
2023-03-27T10:49:05.778Z,3.50
2023-03-27T10:51:46.021Z,3.30
2023-03-27T10:54:45.658Z,3.40
2023-03-27T10:57:34.053Z,4.80
2023-03-27T11:00:27.399Z,4.80
2023-03-27T11:03:05.189Z,3.20
2023-03-27T11:05:38.822Z,3.40
2023-03-27T11:08:29.785Z,2.67
2023-03-27T11:11:01.354Z,2.80
2023-03-27T11:13:36.305Z,2.30
2023-03-27T11:16:10.000Z,2.60
2023-03-27T11:19:11.436Z,2.23
2023-03-27T11:22:15.042Z,1.77
2023-03-27T11:25:07.760Z,2.00
2023-03-27T11:27:41.085Z,3.00
2023-03-27T11:30:34.187Z,1.33
2023-03-27T11:33:35.409Z,1.47
2023-03-27T11:36:20.187Z,1.53
2023-03-27T11:39:15.528Z,1.60
2023-03-27T11:41:52.621Z,1.80
2023-03-27T11:44:20.826Z,1.93
2023-03-27T11:47:43.755Z,2.20
2023-03-27T11:50:48.424Z,2.60
2023-03-27T11:53:21.455Z,1.60
2023-03-27T11:56:31.790Z,1.90
2023-03-27T11:59:40.166Z,3.20
2023-03-27T12:02:28.887Z,2.13
2023-03-27T12:05:16.975Z,2.03
2023-03-27T12:07:52.805Z,2.20
2023-03-27T12:10:31.920Z,3.10
2023-03-27T12:13:38.472Z,2.40
2023-03-27T12:16:11.262Z,2.30
2023-03-27T12:19:38.577Z,2.20
2023-03-27T12:22:56.651Z,1.80
2023-03-27T12:26:00.433Z,1.37
2023-03-27T12:29:23.374Z,1.60
2023-03-27T12:32:05.591Z,2.47
2023-03-27T12:34:51.740Z,2.13
2023-03-27T12:37:24.379Z,2.10
2023-03-27T12:39:59.113Z,2.10
2023-03-27T12:42:48.925Z,1.63
2023-03-27T12:45:23.813Z,1.33
2023-03-27T12:48:09.718Z,1.20
2023-03-27T12:50:44.279Z,1.63
2023-03-27T12:53:41.199Z,1.50
2023-03-27T12:56:13.326Z,1.27
2023-03-27T12:58:41.337Z,0.93
2023-03-27T13:01:32.209Z,0.80
2023-03-27T13:04:42.643Z,1.00
2023-03-27T13:07:27.361Z,1.10
2023-03-27T13:10:52.510Z,0.80
2023-03-27T13:13:45.487Z,0.90
2023-03-27T13:16:30.368Z,1.27
2023-03-27T13:19:22.837Z,1.00
2023-03-27T13:22:45.355Z,1.87
2023-03-27T13:25:45.767Z,1.20
2023-03-27T13:28:15.533Z,0.77
2023-03-27T13:30:56.943Z,0.80
2023-03-27T13:33:47.469Z,0.87
2023-03-27T13:36:29.152Z,0.83
2023-03-27T13:38:56.422Z,0.50
2023-03-27T13:41:44.717Z,0.50
2023-03-27T13:44:41.208Z,0.40
2023-03-27T13:47:15.300Z,0.87
2023-03-27T13:49:47.839Z,0.60
2023-03-27T13:52:32.616Z,0.93
2023-03-27T13:55:17.430Z,0.60
2023-03-27T13:58:25.714Z,0.50
2023-03-27T14:01:07.673Z,0.70
2023-03-27T14:03:41.797Z,0.50
2023-03-27T14:06:51.355Z,0.87
2023-03-27T14:09:35.275Z,0.70
2023-03-27T14:12:43.618Z,0.57
2023-03-27T14:15:47.087Z,0.50
2023-03-27T14:18:42.137Z,0.70
2023-03-27T14:21:24.501Z,0.70
2023-03-27T14:24:38.069Z,0.80
2023-03-27T14:27:18.487Z,1.57
2023-03-27T14:29:46.110Z,1.80
2023-03-27T14:32:17.869Z,2.00
2023-03-27T14:34:54.660Z,2.70
2023-03-27T14:37:38.390Z,2.60
2023-03-27T14:40:27.162Z,3.57
2023-03-27T14:42:58.872Z,2.80
2023-03-27T14:45:29.999Z,3.10
2023-03-27T14:48:01.290Z,2.60
2023-03-27T14:50:38.608Z,2.23
2023-03-27T14:53:10.588Z,2.70
2023-03-27T14:56:00.383Z,1.93
2023-03-27T14:58:48.784Z,2.30
2023-03-27T15:01:18.917Z,2.10
2023-03-27T15:03:52.912Z,3.20
2023-03-27T15:06:26.131Z,3.10
2023-03-27T15:09:05.105Z,2.50
2023-03-27T15:12:11.304Z,2.20
2023-03-27T15:14:40.021Z,1.87
2023-03-27T15:17:15.840Z,1.03
2023-03-27T15:19:51.055Z,1.40
2023-03-27T15:22:27.541Z,1.33
2023-03-27T15:25:26.706Z,0.93
2023-03-27T15:27:58.851Z,1.07
2023-03-27T15:30:34.357Z,1.13
2023-03-27T15:33:04.156Z,0.90
2023-03-27T15:35:41.805Z,1.10
2023-03-27T15:38:13.937Z,0.93
2023-03-27T15:40:42.974Z,1.33
2023-03-27T15:43:13.433Z,0.80
2023-03-27T15:46:15.276Z,1.27
2023-03-27T15:48:45.383Z,1.20
2023-03-27T15:51:18.252Z,2.10
2023-03-27T15:53:50.799Z,0.90
2023-03-27T15:56:34.952Z,0.97
2023-03-27T15:59:04.882Z,0.50
2023-03-27T16:01:35.153Z,0.93
2023-03-27T16:04:18.768Z,1.30
2023-03-27T16:06:51.364Z,1.10
2023-03-27T16:09:25.594Z,2.03
2023-03-27T16:11:54.392Z,2.10
2023-03-27T16:14:49.889Z,4.03
2023-03-27T16:17:24.795Z,1.60
2023-03-27T16:19:54.718Z,1.13
2023-03-27T16:22:32.230Z,2.90
2023-03-27T16:25:01.434Z,1.37
2023-03-27T16:27:33.488Z,1.47
2023-03-27T16:30:00.413Z,2.13
2023-03-27T16:32:27.433Z,2.23
2023-03-27T16:34:54.062Z,1.90
2023-03-27T16:37:23.949Z,3.47
2023-03-27T16:39:51.270Z,2.83
2023-03-27T16:42:22.159Z,2.47
2023-03-27T16:44:50.279Z,1.70
2023-03-27T16:47:17.947Z,1.97
2023-03-27T16:49:44.578Z,2.17
2023-03-27T16:52:11.432Z,2.17
2023-03-27T16:54:38.058Z,1.90
2023-03-27T16:57:04.753Z,1.83
2023-03-27T16:59:31.429Z,2.50
2023-03-27T17:01:58.101Z,2.33
2023-03-27T17:04:25.498Z,2.03
2023-03-27T17:06:52.218Z,4.70
2023-03-27T17:09:18.969Z,2.20
2023-03-27T17:11:45.991Z,4.03
2023-03-27T17:14:12.656Z,1.70
2023-03-27T17:16:39.888Z,2.20
2023-03-27T17:19:07.042Z,1.90
2023-03-27T17:21:33.866Z,2.33
2023-03-27T17:24:01.013Z,2.20
2023-03-27T17:26:34.522Z,2.17
2023-03-27T17:29:05.024Z,2.77
2023-03-27T17:31:33.196Z,3.00
2023-03-27T17:34:00.899Z,3.00
2023-03-27T17:36:39.782Z,3.70
2023-03-27T17:39:10.196Z,2.70
2023-03-27T17:41:36.878Z,3.40
2023-03-27T17:44:04.729Z,5.00
2023-03-27T17:46:32.892Z,4.10
2023-03-27T17:48:59.534Z,4.60
2023-03-27T17:51:26.232Z,3.70
2023-03-27T17:53:52.894Z,2.73
2023-03-27T17:56:19.545Z,3.37
2023-03-27T17:58:48.744Z,3.60
2023-03-27T18:01:19.194Z,5.73
2023-03-27T18:03:46.464Z,6.33
2023-03-27T18:06:14.444Z,7.87
2023-03-27T18:08:41.319Z,15.53
2023-03-27T18:11:11.109Z,8.00
2023-03-27T18:13:38.439Z,4.50
2023-03-27T18:16:08.719Z,4.20
2023-03-27T18:18:36.073Z,3.70
2023-03-27T18:21:02.799Z,4.77
2023-03-27T18:23:29.450Z,6.67
2023-03-27T18:25:56.219Z,5.50
2023-03-27T18:28:24.641Z,5.20
2023-03-27T18:31:02.042Z,5.00
2023-03-27T18:33:29.385Z,2.70
2023-03-27T18:35:57.313Z,2.23
2023-03-27T18:38:25.851Z,2.13
2023-03-27T18:40:55.388Z,3.67
2023-03-27T18:43:23.335Z,2.00
2023-03-27T18:45:57.789Z,2.47
2023-03-27T18:48:25.853Z,2.30
2023-03-27T18:50:57.841Z,2.23
2023-03-27T18:53:25.374Z,2.40
2023-03-27T18:55:52.714Z,2.73
2023-03-27T18:58:20.604Z,3.00
2023-03-27T19:00:47.647Z,2.77
2023-03-27T19:03:16.554Z,3.27
2023-03-27T19:05:43.808Z,2.97
2023-03-27T19:08:10.439Z,2.53
2023-03-27T19:10:37.578Z,1.83
2023-03-27T19:13:17.322Z,2.70
2023-03-27T19:16:15.531Z,3.03
2023-03-27T19:19:00.954Z,2.40
2023-03-27T19:21:39.138Z,2.13
2023-03-27T19:24:11.411Z,2.73
2023-03-27T19:26:43.207Z,2.50
2023-03-27T19:29:10.732Z,3.27
2023-03-27T19:31:37.935Z,3.27
2023-03-27T19:34:05.122Z,2.60
2023-03-27T19:36:32.269Z,2.60
2023-03-27T19:38:59.021Z,2.30
2023-03-27T19:41:25.974Z,2.30
2023-03-27T19:43:53.032Z,3.57
2023-03-27T19:46:19.710Z,2.10
2023-03-27T19:48:51.234Z,2.40
2023-03-27T19:51:25.988Z,2.30
2023-03-27T19:53:52.753Z,2.40
2023-03-27T19:56:22.393Z,2.93
2023-03-27T19:58:49.671Z,2.37
2023-03-27T20:01:19.684Z,2.70
2023-03-27T20:03:46.565Z,1.90
2023-03-27T20:06:18.758Z,2.27
2023-03-27T20:08:45.502Z,2.33
2023-03-27T20:11:14.739Z,2.00
2023-03-27T20:13:52.947Z,2.40
2023-03-27T20:16:21.645Z,2.53
2023-03-27T20:18:55.147Z,2.40
2023-03-27T20:21:25.484Z,2.37
2023-03-27T20:23:55.640Z,2.23
2023-03-27T20:26:32.257Z,1.90
2023-03-27T20:29:12.588Z,2.10
2023-03-27T20:31:39.413Z,2.30
2023-03-27T20:34:07.120Z,2.60
2023-03-27T20:36:35.475Z,2.57
2023-03-27T20:39:14.139Z,3.00
2023-03-27T20:41:40.928Z,2.70
2023-03-27T20:44:15.843Z,2.67
2023-03-27T20:46:51.365Z,3.03
2023-03-27T20:49:39.855Z,3.50
2023-03-27T20:52:10.282Z,3.10
2023-03-27T20:54:37.126Z,4.20
2023-03-27T20:57:04.187Z,2.97
2023-03-27T20:59:31.604Z,2.93
2023-03-27T21:01:59.349Z,3.30
2023-03-27T21:04:28.031Z,3.60
2023-03-27T21:06:55.289Z,3.33
2023-03-27T21:09:23.603Z,4.13
2023-03-27T21:11:53.336Z,3.50
2023-03-27T21:14:20.107Z,4.20
2023-03-27T21:16:46.926Z,3.90
2023-03-27T21:19:13.687Z,5.40
2023-03-27T21:21:40.857Z,3.60
2023-03-27T21:24:07.690Z,3.40
2023-03-27T21:26:35.286Z,2.87
2023-03-27T21:29:03.189Z,2.63
2023-03-27T21:31:29.907Z,2.57
2023-03-27T21:33:56.688Z,3.30
2023-03-27T21:36:23.529Z,3.00
2023-03-27T21:38:50.329Z,3.57
2023-03-27T21:41:17.450Z,3.20
2023-03-27T21:43:44.352Z,2.77
2023-03-27T21:46:11.495Z,3.27
2023-03-27T21:48:40.529Z,3.30
2023-03-27T21:51:08.445Z,3.10
2023-03-27T21:53:35.690Z,3.23
2023-03-27T21:56:02.721Z,2.97
2023-03-27T21:58:29.865Z,3.43
2023-03-27T22:00:57.513Z,3.30
2023-03-27T22:03:25.565Z,3.13
2023-03-27T22:06:01.436Z,4.13
2023-03-27T22:08:38.091Z,4.00
2023-03-27T22:11:05.248Z,3.73
2023-03-27T22:13:31.897Z,4.40
2023-03-27T22:15:58.849Z,3.90
2023-03-27T22:18:25.788Z,3.13
2023-03-27T22:20:53.075Z,3.90
2023-03-27T22:23:19.758Z,3.87
2023-03-27T22:25:54.997Z,5.37
2023-03-27T22:28:21.690Z,4.57
2023-03-27T22:30:48.760Z,3.80
2023-03-27T22:33:15.456Z,4.33
2023-03-27T22:35:48.115Z,3.80
2023-03-27T22:38:16.030Z,3.67
2023-03-27T22:40:42.953Z,4.03
2023-03-27T22:43:09.642Z,3.47
2023-03-27T22:45:36.654Z,4.10
2023-03-27T22:48:05.431Z,3.92
2023-03-27T22:50:32.211Z,3.90
2023-03-27T22:52:58.922Z,3.30
2023-03-27T22:55:26.092Z,4.10
2023-03-27T22:57:52.753Z,4.10
2023-03-27T23:00:19.796Z,4.20
2023-03-27T23:02:46.547Z,4.30
2023-03-27T23:05:13.197Z,4.07
2023-03-27T23:07:39.877Z,4.30
2023-03-27T23:10:07.195Z,4.20
2023-03-27T23:12:33.798Z,3.22
2023-03-27T23:15:00.545Z,3.70
2023-03-27T23:17:27.256Z,3.40
2023-03-27T23:19:53.872Z,3.80
2023-03-27T23:22:20.512Z,3.50
2023-03-27T23:24:47.083Z,3.80
2023-03-27T23:27:13.708Z,3.58
2023-03-27T23:29:40.553Z,4.00
2023-03-27T23:32:07.261Z,3.63
2023-03-27T23:34:33.922Z,3.70
2023-03-27T23:37:00.544Z,4.38
2023-03-27T23:39:27.191Z,6.43
2023-03-27T23:41:53.784Z,4.47
2023-03-27T23:44:20.479Z,5.75
2023-03-27T23:46:47.062Z,4.18
2023-03-27T23:49:14.098Z,4.00
2023-03-27T23:51:40.708Z,4.28
2023-03-27T23:54:07.277Z,4.30
2023-03-27T23:56:33.919Z,3.88
2023-03-27T23:59:00.584Z,4.10
